Time;durP1;ratioP1;P1;durP2;ratioP2;P2;SDS_P1;SDS_P2;PMS_P1;PMS_P2;Temp;Humidity;BMP_temperature;BMP_pressure;BME280_temperature;BME280_humidity;BME280_pressure;Samples;Min_cycle;Max_cycle;Signal;HPM_P1;HPM_P2
2023/07/11 00:00:17;;;;;;;1.50;1.13;;;18.40;99.90;;;;;;5058654;28;20045;-76
2023/07/11 00:02:44;;;;;;;1.38;0.90;;;18.40;99.90;;;;;;5056888;28;20074;-76
2023/07/11 00:05:12;;;;;;;1.88;1.17;;;18.30;99.90;;;;;;5024735;28;20044;-76
2023/07/11 00:07:38;;;;;;;1.27;1.17;;;18.30;99.90;;;;;;5048258;28;20094;-76
2023/07/11 00:10:04;;;;;;;1.15;0.88;;;18.30;99.90;;;;;;5046799;28;20696;-76
2023/07/11 00:12:29;;;;;;;1.92;1.33;;;18.30;99.90;;;;;;5051454;28;20052;-77
2023/07/11 00:14:56;;;;;;;3.88;1.05;;;18.20;99.90;;;;;;5026593;28;20041;-76
2023/07/11 00:17:23;;;;;;;4.70;1.25;;;18.20;99.90;;;;;;5058242;28;20048;-76
2023/07/11 00:19:53;;;;;;;2.13;1.10;;;18.20;99.90;;;;;;5055217;28;20092;-76
2023/07/11 00:22:19;;;;;;;2.17;1.20;;;18.10;99.90;;;;;;5045234;28;20036;-76
2023/07/11 00:24:45;;;;;;;1.92;1.08;;;18.10;99.90;;;;;;5047204;28;20549;-76
2023/07/11 00:27:12;;;;;;;3.30;1.13;;;18.10;99.90;;;;;;5053223;28;20044;-76
2023/07/11 00:29:38;;;;;;;2.90;1.13;;;18.10;99.90;;;;;;5046823;28;20044;-76
2023/07/11 00:32:04;;;;;;;0.85;0.70;;;18.10;99.90;;;;;;5038284;28;20067;-76
2023/07/11 00:34:30;;;;;;;1.60;1.00;;;18.10;99.90;;;;;;5059999;28;20045;-77
2023/07/11 00:36:56;;;;;;;3.83;0.90;;;18.10;99.90;;;;;;5019944;28;20048;-76
2023/07/11 00:39:22;;;;;;;2.28;0.90;;;18.10;99.90;;;;;;5050264;28;20463;-76
2023/07/11 00:41:47;;;;;;;5.00;1.17;;;18.00;99.90;;;;;;5051857;28;20119;-76
2023/07/11 00:44:15;;;;;;;2.05;1.30;;;18.10;99.90;;;;;;5040668;28;20044;-76
2023/07/11 00:46:41;;;;;;;1.15;0.73;;;18.00;99.90;;;;;;5039337;28;20045;-75
2023/07/11 00:49:09;;;;;;;1.27;0.93;;;18.10;99.90;;;;;;5030586;28;20044;-76
2023/07/11 00:51:41;;;;;;;2.58;1.60;;;18.00;99.90;;;;;;5050067;28;20492;-76
2023/07/11 00:54:08;;;;;;;;;;;18.10;99.90;;;;;;5060844;28;20119;-76
2023/07/11 00:56:37;;;;;;;2.70;0.75;;;18.00;99.90;;;;;;5046218;28;19928;-76
2023/07/11 00:59:03;;;;;;;1.23;1.10;;;18.00;99.90;;;;;;5045987;28;20044;-76
2023/07/11 01:01:29;;;;;;;2.47;1.10;;;18.00;99.90;;;;;;5061478;28;20039;-75
2023/07/11 01:03:55;;;;;;;1.30;1.17;;;18.00;99.90;;;;;;5107337;22;20069;-75
2023/07/11 01:06:25;;;;;;;1.80;1.05;;;18.00;99.90;;;;;;5036412;28;20116;-76
2023/07/11 01:08:52;;;;;;;1.52;1.00;;;18.00;99.90;;;;;;5036809;28;20052;-76
2023/07/11 01:11:20;;;;;;;2.10;1.10;;;18.00;99.90;;;;;;5029414;28;20049;-76
2023/07/11 01:13:45;;;;;;;1.42;1.13;;;17.90;99.90;;;;;;5035575;28;20065;-76
2023/07/11 01:16:11;;;;;;;1.60;1.15;;;18.00;99.90;;;;;;5036354;28;20512;-76
2023/07/11 01:18:37;;;;;;;1.40;0.90;;;17.90;99.90;;;;;;5033115;28;20052;-76
2023/07/11 01:21:04;;;;;;;5.15;2.85;;;17.90;99.90;;;;;;5032148;28;20067;-76
2023/07/11 01:23:31;;;;;;;2.72;1.15;;;17.90;99.90;;;;;;5023821;28;20045;-77
2023/07/11 01:26:01;;;;;;;1.33;1.00;;;17.90;99.90;;;;;;5026916;28;20046;-76
2023/07/11 01:28:27;;;;;;;2.83;1.10;;;17.90;99.90;;;;;;5035364;28;20108;-76
2023/07/11 01:30:53;;;;;;;3.40;1.30;;;17.90;99.90;;;;;;5024004;28;20052;-76
2023/07/11 01:33:19;;;;;;;2.83;1.38;;;17.90;99.90;;;;;;5034160;28;20040;-76
2023/07/11 01:35:44;;;;;;;3.15;1.35;;;17.90;99.90;;;;;;5021339;28;20100;-75
2023/07/11 01:38:10;;;;;;;1.63;1.27;;;17.90;99.90;;;;;;5013056;28;20091;-76
2023/07/11 01:40:35;;;;;;;1.08;0.90;;;17.80;99.90;;;;;;5035360;28;20043;-76
2023/07/11 01:43:02;;;;;;;2.78;1.45;;;17.90;99.90;;;;;;5017044;28;20037;-77
2023/07/11 01:45:27;;;;;;;2.47;1.50;;;17.80;99.90;;;;;;5008476;28;20029;-76
2023/07/11 01:47:53;;;;;;;1.75;1.30;;;17.80;99.90;;;;;;5032439;28;20106;-76
2023/07/11 01:50:19;;;;;;;1.73;1.10;;;17.80;99.90;;;;;;5023255;28;20593;-76
2023/07/11 01:52:44;;;;;;;2.20;1.40;;;17.80;99.90;;;;;;5015294;28;20514;-76
2023/07/11 01:55:10;;;;;;;2.78;1.67;;;17.80;99.90;;;;;;5016569;28;20156;-76
2023/07/11 01:57:36;;;;;;;2.03;1.35;;;17.80;99.90;;;;;;5043295;28;20045;-76
2023/07/11 02:00:02;;;;;;;3.78;1.75;;;17.80;99.90;;;;;;5025502;28;20080;-76
2023/07/11 02:02:27;;;;;;;2.45;1.58;;;17.80;99.90;;;;;;5035696;28;20431;-75
2023/07/11 02:04:53;;;;;;;3.33;1.60;;;17.70;99.90;;;;;;5016353;28;20048;-76
2023/07/11 02:07:18;;;;;;;2.92;1.58;;;17.80;99.90;;;;;;5034754;28;20042;-76
2023/07/11 02:09:44;;;;;;;3.63;1.73;;;17.80;99.90;;;;;;5031981;28;20121;-76
2023/07/11 02:12:10;;;;;;;3.35;1.50;;;17.80;99.90;;;;;;5021930;28;20045;-76
2023/07/11 02:14:36;;;;;;;1.98;1.65;;;17.70;99.90;;;;;;5041140;28;20033;-76
2023/07/11 02:17:02;;;;;;;2.53;1.70;;;17.80;99.90;;;;;;5033889;28;20075;-76
2023/07/11 02:19:27;;;;;;;10.18;1.80;;;17.70;99.90;;;;;;5039713;28;20071;-76
2023/07/11 02:21:53;;;;;;;5.95;1.42;;;17.70;99.90;;;;;;5032646;28;20140;-76
2023/07/11 02:24:19;;;;;;;3.15;1.35;;;17.70;99.90;;;;;;5022841;28;20110;-76
2023/07/11 02:26:45;;;;;;;6.28;1.55;;;17.60;99.90;;;;;;5030899;28;20037;-76
2023/07/11 02:29:11;;;;;;;3.00;1.30;;;17.70;99.90;;;;;;5027308;28;20041;-76
2023/07/11 02:31:37;;;;;;;3.63;1.60;;;17.70;99.90;;;;;;5018315;28;20531;-76
2023/07/11 02:34:04;;;;;;;3.47;1.45;;;17.70;99.90;;;;;;5045731;28;20119;-75
2023/07/11 02:36:29;;;;;;;1.65;1.40;;;17.70;99.90;;;;;;5034545;28;20046;-77
2023/07/11 02:38:55;;;;;;;4.50;1.63;;;17.80;99.90;;;;;;5037102;28;20040;-76
2023/07/11 02:41:21;;;;;;;3.40;1.50;;;17.70;99.90;;;;;;5015652;28;20128;-76
2023/07/11 02:43:47;;;;;;;2.92;1.63;;;17.80;99.90;;;;;;5010381;28;20179;-75
2023/07/11 02:46:14;;;;;;;2.22;1.35;;;17.80;99.90;;;;;;5017838;28;20071;-76
2023/07/11 02:48:40;;;;;;;3.85;1.52;;;17.80;99.90;;;;;;5039132;28;20043;-76
2023/07/11 02:51:06;;;;;;;3.28;1.33;;;17.80;99.90;;;;;;5008008;28;20037;-76
2023/07/11 02:53:32;;;;;;;3.15;1.83;;;17.80;99.90;;;;;;5027848;28;20527;-76
2023/07/11 02:55:57;;;;;;;3.35;1.58;;;17.70;99.90;;;;;;5044423;28;20186;-76
2023/07/11 02:58:24;;;;;;;3.97;1.30;;;17.70;99.90;;;;;;5019742;28;20084;-76
2023/07/11 03:00:53;;;;;;;4.45;1.67;;;17.60;99.90;;;;;;5044976;28;20637;-76
2023/07/11 03:03:18;;;;;;;2.33;1.33;;;17.60;99.90;;;;;;5041027;28;20071;-76
2023/07/11 03:05:45;;;;;;;3.20;1.30;;;17.60;99.90;;;;;;5019852;28;20041;-76
2023/07/11 03:08:11;;;;;;;3.28;1.63;;;17.60;99.90;;;;;;5016768;28;20395;-76
2023/07/11 03:10:37;;;;;;;5.72;3.00;;;17.60;99.90;;;;;;5009815;28;20053;-76
2023/07/11 03:13:03;;;;;;;3.03;1.52;;;17.60;99.90;;;;;;5006478;28;20045;-75
2023/07/11 03:15:29;;;;;;;4.85;2.40;;;17.70;99.90;;;;;;5025840;28;20050;-76
2023/07/11 03:17:54;;;;;;;2.92;1.60;;;17.60;99.90;;;;;;5028522;28;20061;-76
2023/07/11 03:20:20;;;;;;;3.85;2.00;;;17.70;99.90;;;;;;5045573;28;20053;-76
2023/07/11 03:22:46;;;;;;;3.90;1.88;;;17.70;99.90;;;;;;5035682;28;20128;-76
2023/07/11 03:25:12;;;;;;;4.80;2.00;;;17.70;99.90;;;;;;5045587;28;20049;-76
2023/07/11 03:27:37;;;;;;;3.22;2.28;;;17.70;99.90;;;;;;5042432;28;20037;-76
2023/07/11 03:30:03;;;;;;;2.85;1.65;;;17.60;99.90;;;;;;5016058;28;20431;-76
2023/07/11 03:32:29;;;;;;;4.53;1.80;;;17.60;99.90;;;;;;5032345;28;20067;-76
2023/07/11 03:34:54;;;;;;;2.17;1.60;;;17.60;99.90;;;;;;5026908;28;20456;-75
2023/07/11 03:37:20;;;;;;;3.78;1.90;;;17.60;99.90;;;;;;5019277;28;20514;-76
2023/07/11 03:39:46;;;;;;;3.30;1.40;;;17.60;99.90;;;;;;5025984;28;20076;-76
2023/07/11 03:42:11;;;;;;;2.33;1.17;;;17.60;99.90;;;;;;5028920;28;20082;-76
2023/07/11 03:44:38;;;;;;;3.03;1.95;;;17.60;99.90;;;;;;5016383;28;20037;-76
2023/07/11 03:47:04;;;;;;;3.00;1.58;;;17.60;99.90;;;;;;5020726;28;20051;-76
2023/07/11 03:49:29;;;;;;;1.90;1.40;;;17.60;99.90;;;;;;5031767;28;20037;-77
2023/07/11 03:51:55;;;;;;;7.95;2.13;;;17.60;99.90;;;;;;5008014;28;20399;-76
2023/07/11 03:54:23;;;;;;;8.40;1.60;;;17.60;99.90;;;;;;5016459;28;20041;-75
2023/07/11 03:56:52;;;;;;;2.83;1.70;;;17.60;99.90;;;;;;5023551;28;20038;-76
2023/07/11 03:59:19;;;;;;;3.83;1.65;;;17.60;99.90;;;;;;5014991;28;20047;-76
2023/07/11 04:01:44;;;;;;;2.38;1.50;;;17.60;99.90;;;;;;5037579;28;20087;-76
2023/07/11 04:04:10;;;;;;;2.17;1.70;;;17.60;99.90;;;;;;5016034;28;20224;-76
2023/07/11 04:06:36;;;;;;;2.65;1.70;;;17.60;99.90;;;;;;5015946;28;20482;-76
2023/07/11 04:09:02;;;;;;;3.58;2.05;;;17.50;99.90;;;;;;5014992;28;20638;-76
2023/07/11 04:11:27;;;;;;;5.15;2.10;;;17.60;99.90;;;;;;5025654;28;20076;-75
2023/07/11 04:13:53;;;;;;;2.60;1.50;;;17.50;99.90;;;;;;5024187;28;20041;-76
2023/07/11 04:16:19;;;;;;;2.80;1.92;;;17.60;99.90;;;;;;5007063;28;20579;-76
2023/07/11 04:18:44;;;;;;;2.78;2.00;;;17.60;99.90;;;;;;5024948;28;20531;-76
2023/07/11 04:21:10;;;;;;;3.60;1.80;;;17.50;99.90;;;;;;5022491;28;20126;-76
2023/07/11 04:23:36;;;;;;;3.60;1.50;;;17.50;99.90;;;;;;5025215;28;20045;-76
2023/07/11 04:26:01;;;;;;;4.93;1.92;;;17.60;99.90;;;;;;5023656;28;20041;-76
2023/07/11 04:28:27;;;;;;;5.57;2.30;;;17.60;99.90;;;;;;5025089;28;20041;-76
2023/07/11 04:30:52;;;;;;;4.05;2.22;;;17.50;99.90;;;;;;5023612;28;20045;-76
2023/07/11 04:33:18;;;;;;;4.68;1.92;;;17.60;99.90;;;;;;5024386;28;20041;-76
2023/07/11 04:35:44;;;;;;;4.45;1.90;;;17.50;99.90;;;;;;5022124;28;20391;-76
2023/07/11 04:38:10;;;;;;;6.80;2.60;;;17.50;99.90;;;;;;5024031;28;20049;-76
2023/07/11 04:40:36;;;;;;;9.45;3.45;;;17.60;99.90;;;;;;5023953;28;20052;-75
2023/07/11 04:43:01;;;;;;;3.50;1.88;;;17.50;99.90;;;;;;5022906;28;20128;-75
2023/07/11 04:45:28;;;;;;;3.67;2.38;;;17.60;99.90;;;;;;5012568;28;20101;-76
2023/07/11 04:47:53;;;;;;;6.28;2.72;;;17.60;99.90;;;;;;5020471;28;20080;-76
2023/07/11 04:50:19;;;;;;;2.03;1.80;;;17.60;99.90;;;;;;5009542;28;20054;-77
2023/07/11 04:52:45;;;;;;;3.83;2.13;;;17.60;99.90;;;;;;5021534;28;20041;-76
2023/07/11 04:55:11;;;;;;;4.55;2.20;;;17.60;99.90;;;;;;5022460;28;20063;-76
2023/07/11 04:57:37;;;;;;;5.82;2.33;;;17.60;99.90;;;;;;5023394;28;20124;-76
2023/07/11 05:00:05;;;;;;;5.97;2.67;;;17.70;99.90;;;;;;5018854;28;20038;-76
2023/07/11 05:02:31;;;;;;;5.60;3.00;;;17.70;99.90;;;;;;5007079;28;20045;-76
2023/07/11 05:04:57;;;;;;;4.97;2.55;;;17.70;99.90;;;;;;5022985;28;20072;-76
2023/07/11 05:07:22;;;;;;;5.18;2.70;;;17.70;99.90;;;;;;5016892;28;20077;-76
2023/07/11 05:09:48;;;;;;;2.55;2.35;;;17.80;99.90;;;;;;5005350;28;20479;-76
2023/07/11 05:12:15;;;;;;;5.72;2.90;;;17.80;99.90;;;;;;5012675;28;20046;-76
2023/07/11 05:14:40;;;;;;;5.15;2.85;;;17.80;99.90;;;;;;5003173;28;20121;-75
2023/07/11 05:17:06;;;;;;;4.40;2.53;;;17.90;99.90;;;;;;5020604;28;20522;-76
2023/07/11 05:19:31;;;;;;;6.10;2.97;;;17.90;99.90;;;;;;5023906;28;20038;-76
2023/07/11 05:21:57;;;;;;;5.15;2.55;;;18.00;99.90;;;;;;5022893;28;20037;-76
2023/07/11 05:24:23;;;;;;;3.95;3.15;;;18.00;99.90;;;;;;5003757;28;20165;-76
2023/07/11 05:26:48;;;;;;;5.38;3.03;;;18.00;99.90;;;;;;5017135;28;20033;-76
2023/07/11 05:29:14;;;;;;;4.65;2.88;;;18.00;99.90;;;;;;5005910;28;20050;-76
2023/07/11 05:31:39;;;;;;;6.20;2.92;;;18.00;99.90;;;;;;5003787;28;20053;-73
2023/07/11 05:34:05;;;;;;;7.68;4.35;;;18.10;99.90;;;;;;5023595;28;20056;-75
2023/07/11 05:36:33;;;;;;;4.82;3.35;;;18.10;99.90;;;;;;5022473;28;20044;-76
2023/07/11 05:39:12;;;;;;;4.72;3.25;;;18.10;99.90;;;;;;5024251;28;20061;-76
2023/07/11 05:41:44;;;;;;;5.53;3.13;;;18.20;99.90;;;;;;5022817;28;20049;-75
2023/07/11 05:44:11;;;;;;;;;;;18.30;99.90;;;;;;5022486;28;20048;-75
2023/07/11 05:46:37;;;;;;;7.15;3.55;;;18.30;99.90;;;;;;5018107;28;19978;-76
2023/07/11 05:49:04;;;;;;;8.10;3.22;;;18.30;99.90;;;;;;5019233;28;20403;-76
2023/07/11 05:51:30;;;;;;;3.70;2.60;;;18.30;99.90;;;;;;5023264;28;20049;-76
2023/07/11 05:53:57;;;;;;;6.65;3.20;;;18.40;99.90;;;;;;5012908;28;20037;-75
2023/07/11 05:56:23;;;;;;;6.30;3.20;;;18.50;99.90;;;;;;5013483;28;20056;-76
2023/07/11 05:58:50;;;;;;;4.30;3.40;;;18.50;99.90;;;;;;5014456;28;20064;-75
2023/07/11 06:01:22;;;;;;;8.60;3.20;;;18.50;99.90;;;;;;5013882;28;20057;-74
2023/07/11 06:04:02;;;;;;;5.18;3.40;;;18.60;99.90;;;;;;5002016;28;20800;-76
2023/07/11 06:06:27;;;;;;;4.38;3.28;;;18.60;99.90;;;;;;5014845;28;20489;-76
2023/07/11 06:08:53;;;;;;;6.07;3.92;;;18.70;99.90;;;;;;5033958;28;20158;-77
2023/07/11 06:11:19;;;;;;;8.60;3.95;;;18.80;99.90;;;;;;5019726;28;20045;-77
2023/07/11 06:13:44;;;;;;;5.57;3.58;;;18.90;99.90;;;;;;5025346;28;20033;-76
2023/07/11 06:16:16;;;;;;;7.05;3.70;;;19.00;99.90;;;;;;5015393;28;20042;-77
2023/07/11 06:18:43;;;;;;;9.05;3.67;;;19.00;99.90;;;;;;5025251;28;20113;-77
2023/07/11 06:21:10;;;;;;;7.20;3.88;;;19.10;99.90;;;;;;5017874;28;20079;-78
2023/07/11 06:23:36;;;;;;;8.80;4.07;;;19.10;99.90;;;;;;5016505;28;20496;-77
2023/07/11 06:26:02;;;;;;;4.80;3.72;;;19.10;99.90;;;;;;5019998;28;20052;-78
2023/07/11 06:28:28;;;;;;;11.35;4.00;;;19.20;99.90;;;;;;5017302;28;20054;-77
2023/07/11 06:30:58;;;;;;;8.32;3.53;;;19.20;99.90;;;;;;5015499;28;20254;-78
2023/07/11 06:33:24;;;;;;;5.65;4.25;;;19.20;99.90;;;;;;5020053;28;20072;-77
2023/07/11 06:35:50;;;;;;;6.65;4.10;;;19.20;99.90;;;;;;5014147;28;20451;-77
2023/07/11 06:38:17;;;;;;;7.55;4.45;;;19.30;99.90;;;;;;5021854;28;20080;-77
2023/07/11 06:40:51;;;;;;;6.20;3.78;;;19.30;99.90;;;;;;5024437;28;20074;-77
2023/07/11 06:43:17;;;;;;;8.48;4.55;;;19.40;99.90;;;;;;5008877;28;20123;-79
2023/07/11 06:45:48;;;;;;;7.78;4.72;;;19.50;99.90;;;;;;4997482;28;20045;-76
2023/07/11 06:48:18;;;;;;;10.43;5.10;;;19.50;99.90;;;;;;5006537;28;20034;-76
2023/07/11 06:50:50;;;;;;;8.75;5.00;;;19.70;99.90;;;;;;5012370;28;20520;-76
2023/07/11 06:53:16;;;;;;;11.07;5.35;;;19.70;99.90;;;;;;5003905;28;20054;-76
2023/07/11 06:55:50;;;;;;;10.43;5.57;;;19.80;99.90;;;;;;5020977;28;20052;-77
2023/07/11 06:58:16;;;;;;;8.27;4.53;;;19.80;99.90;;;;;;5024331;28;20076;-76
2023/07/11 07:00:42;;;;;;;7.47;4.85;;;19.80;99.90;;;;;;5024163;28;20041;-76
2023/07/11 07:03:13;;;;;;;6.88;5.30;;;19.90;99.90;;;;;;5009130;28;20427;-76
2023/07/11 07:05:53;;;;;;;5.25;4.45;;;19.80;99.90;;;;;;5024318;28;20100;-76
2023/07/11 07:08:20;;;;;;;6.20;4.70;;;19.90;99.90;;;;;;4990996;28;20049;-77
2023/07/11 07:10:47;;;;;;;7.00;4.88;;;20.00;99.90;;;;;;5007452;28;20530;-77
2023/07/11 07:13:15;;;;;;;7.57;4.20;;;20.00;99.90;;;;;;5024234;28;20115;-76
2023/07/11 07:15:40;;;;;;;8.50;4.13;;;20.10;99.90;;;;;;5025174;28;20052;-76
2023/07/11 07:18:06;;;;;;;8.13;4.82;;;20.10;99.90;;;;;;5024470;28;20041;-77
2023/07/11 07:20:31;;;;;;;7.90;4.97;;;20.20;99.90;;;;;;5006175;28;20129;-77
2023/07/11 07:22:57;;;;;;;7.00;4.93;;;20.20;99.90;;;;;;5025192;28;20045;-77
2023/07/11 07:25:23;;;;;;;6.07;4.40;;;20.30;99.90;;;;;;5010501;28;20050;-76
2023/07/11 07:27:48;;;;;;;7.70;4.70;;;20.30;99.90;;;;;;5034521;28;20045;-76
2023/07/11 07:30:14;;;;;;;5.05;4.00;;;20.30;99.90;;;;;;5025131;28;20048;-76
2023/07/11 07:32:39;;;;;;;7.88;5.07;;;20.40;99.90;;;;;;5035439;28;20080;-76
2023/07/11 07:35:05;;;;;;;9.98;5.25;;;20.40;99.90;;;;;;5025026;28;20040;-77
2023/07/11 07:37:31;;;;;;;8.23;4.95;;;20.40;99.90;;;;;;4991760;28;20120;-76
2023/07/11 07:39:56;;;;;;;8.32;4.80;;;20.40;99.90;;;;;;5014071;28;20566;-76
2023/07/11 07:42:22;;;;;;;5.82;4.03;;;20.40;99.90;;;;;;5032188;28;20042;-76
2023/07/11 07:44:48;;;;;;;11.68;4.93;;;20.40;99.90;;;;;;5011095;28;20120;-76
2023/07/11 07:47:14;;;;;;;8.15;4.60;;;20.40;99.90;;;;;;5030860;28;20506;-77
2023/07/11 07:49:39;;;;;;;7.00;4.30;;;20.50;99.90;;;;;;5003191;28;20451;-77
2023/07/11 07:52:05;;;;;;;7.15;4.38;;;20.60;99.90;;;;;;5033144;28;20091;-76
2023/07/11 07:54:31;;;;;;;5.72;4.05;;;20.70;99.90;;;;;;5015562;28;20037;-77
2023/07/11 07:56:56;;;;;;;5.43;3.42;;;20.80;99.90;;;;;;5024379;28;20036;-76
2023/07/11 07:59:22;;;;;;;7.07;4.03;;;20.90;99.90;;;;;;5032381;28;20042;-75
2023/07/11 08:01:47;;;;;;;5.07;3.92;;;21.00;99.90;;;;;;5012256;28;20056;-76
2023/07/11 08:04:13;;;;;;;7.07;3.58;;;21.00;99.90;;;;;;5022125;28;20478;-76
2023/07/11 08:06:39;;;;;;;6.28;4.00;;;21.10;99.90;;;;;;5013770;28;20050;-76
2023/07/11 08:09:04;;;;;;;5.43;3.38;;;21.20;99.90;;;;;;5011572;28;20132;-76
2023/07/11 08:11:30;;;;;;;4.15;3.25;;;21.30;99.90;;;;;;5012598;28;20056;-77
2023/07/11 08:13:56;;;;;;;4.90;2.85;;;21.40;99.90;;;;;;5003612;28;20034;-76
2023/07/11 08:16:21;;;;;;;8.43;3.72;;;21.60;99.90;;;;;;5003337;28;20054;-76
2023/07/11 08:18:47;;;;;;;5.28;2.90;;;21.70;99.90;;;;;;5004538;28;20122;-76
2023/07/11 08:21:13;;;;;;;6.65;2.88;;;21.80;99.90;;;;;;5002641;28;20052;-76
2023/07/11 08:23:38;;;;;;;5.57;3.03;;;21.80;99.90;;;;;;5002713;28;20056;-76
2023/07/11 08:26:04;;;;;;;5.25;3.10;;;21.90;99.90;;;;;;5003985;28;20046;-76
2023/07/11 08:28:30;;;;;;;3.72;3.38;;;21.90;99.90;;;;;;5003690;28;20057;-77
2023/07/11 08:30:55;;;;;;;3.75;3.17;;;22.00;99.90;;;;;;5003131;28;20522;-76
2023/07/11 08:33:21;;;;;;;4.53;3.10;;;22.10;99.90;;;;;;5002175;28;20042;-76
2023/07/11 08:35:46;;;;;;;5.93;3.42;;;22.10;99.90;;;;;;5002978;28;20250;-76
2023/07/11 08:38:12;;;;;;;7.30;3.05;;;22.20;99.90;;;;;;4986380;28;20381;-76
2023/07/11 08:40:45;;;;;;;3.67;2.42;;;22.20;99.90;;;;;;5002680;28;20045;-76
2023/07/11 08:43:18;;;;;;;4.55;2.70;;;22.30;99.90;;;;;;5001985;28;20077;-76
2023/07/11 08:46:05;;;;;;;5.63;2.25;;;22.30;99.90;;;;;;5003692;28;20052;-76
2023/07/11 08:48:45;;;;;;;5.32;2.47;;;22.40;99.90;;;;;;5017332;28;20052;-76
2023/07/11 08:51:23;;;;;;;9.57;2.78;;;22.50;99.90;;;;;;5009387;28;20041;-76
2023/07/11 08:54:01;;;;;;;2.65;2.00;;;22.60;99.90;;;;;;5012302;28;20209;-76
2023/07/11 08:56:37;;;;;;;3.63;2.30;;;22.70;99.90;;;;;;5019831;28;20139;-75
2023/07/11 08:59:08;;;;;;;4.65;2.20;;;22.70;99.90;;;;;;5002417;28;20054;-76
2023/07/11 09:02:01;;;;;;;4.60;2.13;;;22.70;99.90;;;;;;5010473;28;20034;-77
2023/07/11 09:04:30;;;;;;;3.60;1.98;;;22.80;99.90;;;;;;5015842;28;20578;-76
2023/07/11 09:07:05;;;;;;;2.25;2.05;;;22.80;99.90;;;;;;4999698;28;20045;-75
2023/07/11 09:09:32;;;;;;;7.20;2.25;;;22.80;99.90;;;;;;5020154;28;20513;-75
2023/07/11 09:12:13;;;;;;;2.70;1.92;;;22.80;99.90;;;;;;5032626;28;20049;-76
2023/07/11 09:15:13;;;;;;;3.67;2.10;;;22.80;99.90;;;;;;5034112;28;20104;-76
2023/07/11 09:17:48;;;;;;;5.85;2.17;;;22.80;99.90;;;;;;5028115;28;20395;-75
2023/07/11 09:20:40;;;;;;;2.95;1.83;;;22.90;99.90;;;;;;5031616;28;20041;-75
2023/07/11 09:23:40;;;;;;;3.38;1.77;;;22.90;99.90;;;;;;5016511;28;20556;-76
2023/07/11 09:26:12;;;;;;;1.88;1.70;;;22.90;99.90;;;;;;5033769;28;20060;-76
2023/07/11 09:28:38;;;;;;;;;;;23.00;99.90;;;;;;5062718;28;20051;-79
2023/07/11 09:31:09;;;;;;;3.58;1.77;;;23.00;99.90;;;;;;5060470;28;19921;-77
2023/07/11 09:33:39;;;;;;;4.70;1.73;;;23.10;99.90;;;;;;5061778;28;20128;-78
2023/07/11 09:36:26;;;;;;;3.33;1.85;;;23.10;99.90;;;;;;5063231;28;20159;-77
2023/07/11 09:39:01;;;;;;;4.18;1.88;;;23.20;99.90;;;;;;5050195;28;20602;-77
2023/07/11 09:41:43;;;;;;;4.97;2.03;;;23.20;99.90;;;;;;5042653;28;20403;-76
2023/07/11 09:44:10;;;;;;;3.83;2.10;;;23.20;99.90;;;;;;5037259;28;20041;-76
2023/07/11 09:46:36;;;;;;;4.70;2.42;;;23.20;99.90;;;;;;5034765;28;20041;-76
2023/07/11 09:49:07;;;;;;;3.63;2.25;;;23.20;99.90;;;;;;5038871;28;20041;-76
2023/07/11 09:51:41;;;;;;;6.07;1.85;;;23.30;99.90;;;;;;5034303;28;20703;-76
2023/07/11 09:54:23;;;;;;;3.05;2.10;;;23.30;99.90;;;;;;5041066;28;20116;-76
2023/07/11 09:56:50;;;;;;;4.88;1.80;;;23.30;99.90;;;;;;5040501;28;20087;-76
2023/07/11 09:59:17;;;;;;;3.47;2.10;;;23.30;99.90;;;;;;5037964;28;20045;-76
2023/07/11 10:01:43;;;;;;;3.03;1.73;;;23.40;99.90;;;;;;5046890;28;20037;-75
2023/07/11 10:04:17;;;;;;;6.22;2.38;;;23.40;99.90;;;;;;5045242;28;20080;-79
2023/07/11 10:07:00;;;;;;;7.05;2.40;;;23.40;99.90;;;;;;5045515;28;20037;-72
2023/07/11 10:09:32;;;;;;;4.90;2.10;;;23.40;99.90;;;;;;5046818;28;20522;-73
2023/07/11 10:11:59;;;;;;;;;;;23.50;99.90;;;;;;5043434;28;20056;-73
2023/07/11 10:14:35;;;;;;;3.92;2.17;;;23.50;99.90;;;;;;5044650;28;19921;-73
2023/07/11 10:17:17;;;;;;;7.25;2.53;;;23.40;99.90;;;;;;5063249;28;20052;-73
2023/07/11 10:19:43;;;;;;;3.58;2.65;;;23.40;99.90;;;;;;5034904;28;20037;-73
2023/07/11 10:22:16;;;;;;;4.45;2.58;;;23.40;99.90;;;;;;5043887;28;20102;-73
2023/07/11 10:24:42;;;;;;;2.40;2.20;;;23.40;99.90;;;;;;5046277;28;20045;-73
2023/07/11 10:27:13;;;;;;;5.43;2.38;;;23.30;99.90;;;;;;5024506;28;20498;-72
2023/07/11 10:29:51;;;;;;;4.30;2.25;;;23.30;99.90;;;;;;5037436;28;20041;-72
2023/07/11 10:32:34;;;;;;;3.47;1.90;;;23.30;99.90;;;;;;5038093;28;20457;-73
2023/07/11 10:35:02;;;;;;;2.70;2.50;;;23.30;99.90;;;;;;5023688;28;20090;-74
2023/07/11 10:37:32;;;;;;;5.35;2.55;;;23.30;99.90;;;;;;5020385;28;20056;-72
2023/07/11 10:40:08;;;;;;;4.93;2.25;;;23.30;99.90;;;;;;5024989;28;20052;-73
2023/07/11 10:42:45;;;;;;;3.95;2.75;;;23.40;99.90;;;;;;5022254;28;20048;-73
2023/07/11 10:45:19;;;;;;;5.25;2.40;;;23.40;99.90;;;;;;5027447;28;20071;-73
2023/07/11 10:48:14;;;;;;;2.80;1.70;;;23.40;99.90;;;;;;5032251;28;20037;-73
2023/07/11 10:50:49;;;;;;;2.42;1.70;;;23.40;99.90;;;;;;5027329;28;20045;-73
2023/07/11 10:53:28;;;;;;;6.72;1.80;;;23.40;99.90;;;;;;5027949;28;20057;-73
2023/07/11 10:56:21;;;;;;;2.42;1.55;;;23.50;99.90;;;;;;5048151;28;20111;-72
2023/07/11 10:58:48;;;;;;;1.70;1.20;;;23.50;99.90;;;;;;5021850;28;20060;-72
2023/07/11 11:01:32;;;;;;;6.00;1.75;;;23.60;99.90;;;;;;5025616;28;20041;-73
2023/07/11 11:04:31;;;;;;;2.10;1.50;;;23.60;99.90;;;;;;5052259;28;20049;-73
2023/07/11 11:07:08;;;;;;;4.75;1.77;;;23.60;99.90;;;;;;5026327;28;20511;-72
2023/07/11 11:09:47;;;;;;;2.42;1.58;;;23.60;99.90;;;;;;5005819;28;20049;-72
2023/07/11 11:12:22;;;;;;;3.20;1.65;;;23.60;99.90;;;;;;5023116;28;20098;-73
2023/07/11 11:15:01;;;;;;;3.40;1.50;;;23.60;99.90;;;;;;5028728;28;20053;-72
2023/07/11 11:17:49;;;;;;;3.80;1.90;;;23.70;99.90;;;;;;5028106;28;20527;-72
2023/07/11 11:20:17;;;;;;;4.72;1.50;;;23.70;99.90;;;;;;5044143;28;20534;-73
2023/07/11 11:23:06;;;;;;;2.28;1.60;;;23.70;99.90;;;;;;5027443;28;20060;-72
2023/07/11 11:25:38;;;;;;;3.72;2.17;;;23.70;99.90;;;;;;5038987;28;20038;-73
2023/07/11 11:28:57;;;;;;;2.38;1.60;;;23.70;99.90;;;;;;5026244;28;20041;-73
2023/07/11 11:31:26;;;;;;;5.78;1.52;;;23.70;99.90;;;;;;4981737;28;20034;-73
2023/07/11 11:34:19;;;;;;;3.97;1.85;;;23.70;99.90;;;;;;5025436;28;20140;-72
2023/07/11 11:37:06;;;;;;;4.00;2.00;;;23.70;99.90;;;;;;5026204;28;20033;-71
2023/07/11 11:39:58;;;;;;;3.83;1.90;;;23.70;99.90;;;;;;5008462;28;20053;-72
2023/07/11 11:42:30;;;;;;;2.22;2.03;;;23.70;99.90;;;;;;5020841;28;20128;-72
2023/07/11 11:44:58;;;;;;;;;;;23.70;99.90;;;;;;5021612;28;20091;-71
2023/07/11 11:47:25;;;;;;;2.58;1.52;;;23.70;99.90;;;;;;5027735;28;19920;-72
2023/07/11 11:49:52;;;;;;;3.13;1.90;;;23.70;99.90;;;;;;5036971;28;20124;-71
2023/07/11 11:52:20;;;;;;;4.03;1.85;;;23.70;99.90;;;;;;5040204;28;20048;-72
2023/07/11 11:54:48;;;;;;;4.45;2.10;;;23.80;99.90;;;;;;5029857;28;20487;-73
2023/07/11 11:57:29;;;;;;;5.85;2.05;;;23.80;99.90;;;;;;5016251;28;20051;-72
2023/07/11 11:59:54;;;;;;;4.63;2.20;;;23.80;99.90;;;;;;5020907;28;20096;-74
2023/07/11 12:02:32;;;;;;;3.40;2.22;;;23.80;99.90;;;;;;5022188;28;20439;-72
2023/07/11 12:04:59;;;;;;;2.42;1.70;;;23.90;99.90;;;;;;5021612;28;20041;-71
2023/07/11 12:07:34;;;;;;;3.83;1.95;;;23.90;99.90;;;;;;5022933;28;20128;-72
2023/07/11 12:10:09;;;;;;;2.45;1.00;;;23.90;99.90;;;;;;5013355;28;20491;-74
2023/07/11 12:12:34;;;;;;;1.75;1.25;;;23.90;99.90;;;;;;5019705;28;20045;-72
2023/07/11 12:15:21;;;;;;;2.80;1.50;;;24.00;99.90;;;;;;5015904;28;20482;-72
2023/07/11 12:17:49;;;;;;;2.00;0.70;;;24.00;99.90;;;;;;5021357;28;20033;-72
2023/07/11 12:20:26;;;;;;;2.88;1.30;;;24.00;99.90;;;;;;5048336;28;20044;-72
2023/07/11 12:22:52;;;;;;;0.70;0.60;;;24.00;99.90;;;;;;5018417;28;20044;-74
2023/07/11 12:25:28;;;;;;;2.03;1.10;;;24.10;99.90;;;;;;5026997;28;20053;-72
2023/07/11 12:27:55;;;;;;;0.90;0.80;;;24.10;99.90;;;;;;5045326;28;20124;-72
2023/07/11 12:30:27;;;;;;;2.33;1.10;;;24.10;99.90;;;;;;5030674;28;20439;-72
2023/07/11 12:32:57;;;;;;;0.60;0.60;;;24.10;99.90;;;;;;5002326;28;20129;-73
2023/07/11 12:35:25;;;;;;;1.95;0.88;;;24.10;99.90;;;;;;5004385;28;20079;-73
2023/07/11 12:38:02;;;;;;;2.78;0.90;;;24.00;99.90;;;;;;5043037;28;20090;-72
2023/07/11 12:40:38;;;;;;;3.25;0.60;;;24.00;99.90;;;;;;5022667;28;20145;-73
2023/07/11 12:43:17;;;;;;;2.45;0.90;;;23.90;99.90;;;;;;5034659;28;20086;-72
2023/07/11 12:45:50;;;;;;;2.53;0.60;;;24.00;99.90;;;;;;5043859;28;20109;-74
2023/07/11 12:48:32;;;;;;;2.28;0.85;;;24.00;99.90;;;;;;5033746;28;20052;-71
2023/07/11 12:51:01;;;;;;;;;;;24.00;99.90;;;;;;5034380;28;20049;-72
2023/07/11 12:53:27;;;;;;;1.33;1.10;;;23.90;99.90;;;;;;5044892;28;19954;-74
2023/07/11 12:55:54;;;;;;;1.20;1.00;;;23.90;99.90;;;;;;5025456;28;20425;-72
2023/07/11 12:58:28;;;;;;;1.05;0.70;;;23.80;99.90;;;;;;5015871;28;20041;-71